sensor_id;sensor_type;location;lat;lon;timestamp;pressure;altitude;pressure_sealevel;temperature;humidity
11440;BME280;5776;51.814;4.510;2023-04-16T00:00:03;102349.38;;;10.70;93.91
11440;BME280;5776;51.814;4.510;2023-04-16T00:02:30;102354.22;;;10.68;93.32
11440;BME280;5776;51.814;4.510;2023-04-16T00:04:55;102360.75;;;10.67;93.70
11440;BME280;5776;51.814;4.510;2023-04-16T00:07:21;102356.38;;;10.66;94.03
11440;BME280;5776;51.814;4.510;2023-04-16T00:09:47;102353.16;;;10.69;93.94
11440;BME280;5776;51.814;4.510;2023-04-16T00:12:13;102360.75;;;10.67;94.18
11440;BME280;5776;51.814;4.510;2023-04-16T00:14:39;102359.09;;;10.66;94.56
11440;BME280;5776;51.814;4.510;2023-04-16T00:17:05;102369.66;;;10.62;95.26
11440;BME280;5776;51.814;4.510;2023-04-16T00:19:31;102355.25;;;10.62;95.16
11440;BME280;5776;51.814;4.510;2023-04-16T00:21:56;102363.41;;;10.62;95.38
11440;BME280;5776;51.814;4.510;2023-04-16T00:24:22;102355.81;;;10.64;95.80
11440;BME280;5776;51.814;4.510;2023-04-16T00:26:48;102368.84;;;10.62;95.52
11440;BME280;5776;51.814;4.510;2023-04-16T00:29:14;102363.41;;;10.62;95.50
11440;BME280;5776;51.814;4.510;2023-04-16T00:31:40;102359.59;;;10.63;95.72
11440;BME280;5776;51.814;4.510;2023-04-16T00:34:06;102357.97;;;10.62;95.98
11440;BME280;5776;51.814;4.510;2023-04-16T00:36:32;102361.19;;;10.58;95.81
11440;BME280;5776;51.814;4.510;2023-04-16T00:38:58;102361.44;;;10.57;96.36
11440;BME280;5776;51.814;4.510;2023-04-16T00:41:24;102356.81;;;10.57;96.69
11440;BME280;5776;51.814;4.510;2023-04-16T00:43:51;102360.63;;;10.56;96.28
11440;BME280;5776;51.814;4.510;2023-04-16T00:46:23;102353.50;;;10.55;96.29
11440;BME280;5776;51.814;4.510;2023-04-16T00:48:50;102359.28;;;10.59;96.25
11440;BME280;5776;51.814;4.510;2023-04-16T00:51:18;102355.69;;;10.53;96.35
11440;BME280;5776;51.814;4.510;2023-04-16T00:53:45;102358.94;;;10.55;95.99
11440;BME280;5776;51.814;4.510;2023-04-16T00:56:12;102354.03;;;10.52;96.28
11440;BME280;5776;51.814;4.510;2023-04-16T00:58:39;102358.88;;;10.50;97.59
11440;BME280;5776;51.814;4.510;2023-04-16T01:01:05;102363.25;;;10.51;97.33
11440;BME280;5776;51.814;4.510;2023-04-16T01:03:39;102363.00;;;10.53;96.76
11440;BME280;5776;51.814;4.510;2023-04-16T01:06:06;102356.75;;;10.52;96.42
11440;BME280;5776;51.814;4.510;2023-04-16T01:08:32;102363.25;;;10.51;96.60
11440;BME280;5776;51.814;4.510;2023-04-16T01:10:58;102363.25;;;10.51;96.90
11440;BME280;5776;51.814;4.510;2023-04-16T01:13:24;102366.22;;;10.50;96.87
11440;BME280;5776;51.814;4.510;2023-04-16T01:15:50;102364.31;;;10.50;96.53
11440;BME280;5776;51.814;4.510;2023-04-16T01:18:18;102370.84;;;10.49;96.77
11440;BME280;5776;51.814;4.510;2023-04-16T01:20:46;102368.34;;;10.48;97.08
11440;BME280;5776;51.814;4.510;2023-04-16T01:23:12;102372.97;;;10.47;96.73
11440;BME280;5776;51.814;4.510;2023-04-16T01:25:38;102361.28;;;10.47;97.20
11440;BME280;5776;51.814;4.510;2023-04-16T01:28:05;102362.63;;;10.44;96.81
11440;BME280;5776;51.814;4.510;2023-04-16T01:30:32;102365.31;;;10.44;97.40
11440;BME280;5776;51.814;4.510;2023-04-16T01:32:58;102368.84;;;10.45;97.50
11440;BME280;5776;51.814;4.510;2023-04-16T01:35:24;102365.31;;;10.44;96.87
11440;BME280;5776;51.814;4.510;2023-04-16T01:37:50;102363.66;;;10.43;97.20
11440;BME280;5776;51.814;4.510;2023-04-16T01:40:17;102360.94;;;10.43;97.53
11440;BME280;5776;51.814;4.510;2023-04-16T01:42:43;102365.56;;;10.43;96.54
11440;BME280;5776;51.814;4.510;2023-04-16T01:45:09;102368.56;;;10.41;96.98
11440;BME280;5776;51.814;4.510;2023-04-16T01:47:35;102363.94;;;10.42;96.67
11440;BME280;5776;51.814;4.510;2023-04-16T01:50:02;102368.56;;;10.41;97.61
11440;BME280;5776;51.814;4.510;2023-04-16T01:52:28;102364.44;;;10.38;97.33
11440;BME280;5776;51.814;4.510;2023-04-16T01:54:54;102367.41;;;10.37;97.94
11440;BME280;5776;51.814;4.510;2023-04-16T01:57:21;102374.47;;;10.38;97.40
11440;BME280;5776;51.814;4.510;2023-04-16T01:59:47;102366.56;;;10.36;97.67
11440;BME280;5776;51.814;4.510;2023-04-16T02:02:14;102370.69;;;10.39;96.90
11440;BME280;5776;51.814;4.510;2023-04-16T02:04:43;102370.94;;;10.37;96.87
11440;BME280;5776;51.814;4.510;2023-04-16T02:07:10;102371.44;;;10.34;97.45
11440;BME280;5776;51.814;4.510;2023-04-16T02:09:37;102374.38;;;10.33;97.79
11440;BME280;5776;51.814;4.510;2023-04-16T02:12:04;102379.34;;;10.36;97.72
11440;BME280;5776;51.814;4.510;2023-04-16T02:14:30;102367.31;;;10.32;98.16
11440;BME280;5776;51.814;4.510;2023-04-16T02:16:57;102374.66;;;10.31;97.74
11440;BME280;5776;51.814;4.510;2023-04-16T02:19:23;102374.38;;;10.33;97.32
11440;BME280;5776;51.814;4.510;2023-04-16T02:21:53;102378.41;;;10.30;97.49
11440;BME280;5776;51.814;4.510;2023-04-16T02:24:20;102381.72;;;10.32;97.70
11440;BME280;5776;51.814;4.510;2023-04-16T02:26:46;102379.25;;;10.31;97.81
11440;BME280;5776;51.814;4.510;2023-04-16T02:29:12;102389.53;;;10.29;98.02
11440;BME280;5776;51.814;4.510;2023-04-16T02:31:38;102380.31;;;10.30;97.98
11440;BME280;5776;51.814;4.510;2023-04-16T02:34:04;102385.16;;;10.28;97.56
11440;BME280;5776;51.814;4.510;2023-04-16T02:36:31;102385.16;;;10.28;98.80
11440;BME280;5776;51.814;4.510;2023-04-16T02:38:58;102385.63;;;10.25;98.98
11440;BME280;5776;51.814;4.510;2023-04-16T02:41:24;102382.69;;;10.26;98.95
11440;BME280;5776;51.814;4.510;2023-04-16T02:43:50;102380.22;;;10.25;98.55
11440;BME280;5776;51.814;4.510;2023-04-16T02:46:16;102381.28;;;10.24;99.37
11440;BME280;5776;51.814;4.510;2023-04-16T02:48:42;102392.16;;;10.24;98.41
11440;BME280;5776;51.814;4.510;2023-04-16T02:51:08;102388.34;;;10.25;99.25
11440;BME280;5776;51.814;4.510;2023-04-16T02:53:34;102384.47;;;10.21;99.36
11440;BME280;5776;51.814;4.510;2023-04-16T02:56:00;102386.16;;;10.22;99.33
11440;BME280;5776;51.814;4.510;2023-04-16T02:58:26;102382.34;;;10.23;99.36
11440;BME280;5776;51.814;4.510;2023-04-16T03:00:53;102385.31;;;10.21;99.11
11440;BME280;5776;51.814;4.510;2023-04-16T03:03:20;102386.16;;;10.22;99.35
11440;BME280;5776;51.814;4.510;2023-04-16T03:05:46;102386.06;;;10.16;100.00
11440;BME280;5776;51.814;4.510;2023-04-16T03:08:13;102386.66;;;10.19;99.02
11440;BME280;5776;51.814;4.510;2023-04-16T03:10:39;102394.22;;;10.16;100.00
11440;BME280;5776;51.814;4.510;2023-04-16T03:13:06;102389.00;;;10.15;100.00
11440;BME280;5776;51.814;4.510;2023-04-16T03:15:32;102389.00;;;10.15;99.77
11440;BME280;5776;51.814;4.510;2023-04-16T03:17:58;102399.63;;;10.16;99.73
11440;BME280;5776;51.814;4.510;2023-04-16T03:20:24;102397.97;;;10.15;100.00
11440;BME280;5776;51.814;4.510;2023-04-16T03:22:50;102399.28;;;10.13;100.00
11440;BME280;5776;51.814;4.510;2023-04-16T03:25:17;102395.53;;;10.14;99.76
11440;BME280;5776;51.814;4.510;2023-04-16T03:27:43;102405.81;;;10.12;100.00
11440;BME280;5776;51.814;4.510;2023-04-16T03:30:10;102405.00;;;10.11;100.00
11440;BME280;5776;51.814;4.510;2023-04-16T03:32:37;102397.91;;;10.10;100.00
11440;BME280;5776;51.814;4.510;2023-04-16T03:35:04;102396.03;;;10.11;100.00
11440;BME280;5776;51.814;4.510;2023-04-16T03:37:30;102407.94;;;10.10;100.00
11440;BME280;5776;51.814;4.510;2023-04-16T03:39:56;102403.81;;;10.07;100.00
11440;BME280;5776;51.814;4.510;2023-04-16T03:42:22;102399.47;;;10.06;100.00
11440;BME280;5776;51.814;4.510;2023-04-16T03:44:48;102395.94;;;10.06;100.00
11440;BME280;5776;51.814;4.510;2023-04-16T03:47:14;102398.41;;;10.07;100.00
11440;BME280;5776;51.814;4.510;2023-04-16T03:49:40;102402.41;;;10.05;100.00
11440;BME280;5776;51.814;4.510;2023-04-16T03:52:06;102392.38;;;10.05;100.00
11440;BME280;5776;51.814;4.510;2023-04-16T03:54:32;102403.00;;;10.07;100.00
11440;BME280;5776;51.814;4.510;2023-04-16T03:56:58;102405.41;;;10.03;100.00
11440;BME280;5776;51.814;4.510;2023-04-16T03:59:24;102398.06;;;10.04;100.00
11440;BME280;5776;51.814;4.510;2023-04-16T04:01:49;102395.59;;;10.02;100.00
11440;BME280;5776;51.814;4.510;2023-04-16T04:04:15;102400.44;;;10.00;100.00
11440;BME280;5776;51.814;4.510;2023-04-16T04:06:44;102405.88;;;10.00;100.00
11440;BME280;5776;51.814;4.510;2023-04-16T04:09:10;102399.31;;;9.96;100.00
11440;BME280;5776;51.814;4.510;2023-04-16T04:11:36;102401.16;;;9.95;100.00
11440;BME280;5776;51.814;4.510;2023-04-16T04:14:02;102407.19;;;9.98;100.00
11440;BME280;5776;51.814;4.510;2023-04-16T04:16:30;102402.34;;;10.00;100.00
11440;BME280;5776;51.814;4.510;2023-04-16T04:18:56;102402.56;;;9.98;100.00
11440;BME280;5776;51.814;4.510;2023-04-16T04:21:22;102400.94;;;9.97;100.00
11440;BME280;5776;51.814;4.510;2023-04-16T04:23:48;102402.56;;;9.98;100.00
11440;BME280;5776;51.814;4.510;2023-04-16T04:26:14;102407.44;;;9.96;100.00
11440;BME280;5776;51.814;4.510;2023-04-16T04:28:40;102405.78;;;9.95;100.00
11440;BME280;5776;51.814;4.510;2023-04-16T04:31:06;102403.06;;;9.95;100.00
11440;BME280;5776;51.814;4.510;2023-04-16T04:33:32;102410.41;;;9.94;100.00
11440;BME280;5776;51.814;4.510;2023-04-16T04:35:58;102407.91;;;9.93;100.00
11440;BME280;5776;51.814;4.510;2023-04-16T04:38:24;102407.09;;;9.92;100.00
11440;BME280;5776;51.814;4.510;2023-04-16T04:40:50;102407.09;;;9.92;100.00
11440;BME280;5776;51.814;4.510;2023-04-16T04:43:18;102414.28;;;9.99;100.00
11440;BME280;5776;51.814;4.510;2023-04-16T04:45:44;102406.88;;;9.94;100.00
11440;BME280;5776;51.814;4.510;2023-04-16T04:48:11;102416.91;;;9.93;100.00
11440;BME280;5776;51.814;4.510;2023-04-16T04:50:38;102412.28;;;9.94;100.00
11440;BME280;5776;51.814;4.510;2023-04-16T04:53:05;102414.44;;;9.92;100.00
11440;BME280;5776;51.814;4.510;2023-04-16T04:55:38;102415.50;;;9.91;100.00
11440;BME280;5776;51.814;4.510;2023-04-16T04:58:04;102422.81;;;9.90;100.00
11440;BME280;5776;51.814;4.510;2023-04-16T05:00:31;102419.84;;;9.92;100.00
11440;BME280;5776;51.814;4.510;2023-04-16T05:03:01;102420.44;;;9.94;100.00
11440;BME280;5776;51.814;4.510;2023-04-16T05:05:27;102423.16;;;9.94;100.00
11440;BME280;5776;51.814;4.510;2023-04-16T05:07:53;102429.63;;;9.93;100.00
11440;BME280;5776;51.814;4.510;2023-04-16T05:10:19;102433.66;;;9.90;100.00
11440;BME280;5776;51.814;4.510;2023-04-16T05:12:47;102441.56;;;9.92;100.00
11440;BME280;5776;51.814;4.510;2023-04-16T05:15:13;102433.66;;;9.90;100.00
11440;BME280;5776;51.814;4.510;2023-04-16T05:17:40;102432.25;;;9.88;100.00
11440;BME280;5776;51.814;4.510;2023-04-16T05:20:10;102429.31;;;9.89;100.00
11440;BME280;5776;51.814;4.510;2023-04-16T05:22:36;102433.34;;;9.87;100.00
11440;BME280;5776;51.814;4.510;2023-04-16T05:25:02;102432.84;;;9.90;100.00
11440;BME280;5776;51.814;4.510;2023-04-16T05:27:28;102439.44;;;9.94;100.00
11440;BME280;5776;51.814;4.510;2023-04-16T05:29:54;102442.66;;;9.91;100.00
11440;BME280;5776;51.814;4.510;2023-04-16T05:32:21;102445.59;;;9.89;100.00
11440;BME280;5776;51.814;4.510;2023-04-16T05:34:47;102443.97;;;9.88;100.00
11440;BME280;5776;51.814;4.510;2023-04-16T05:37:13;102440.41;;;9.88;100.00
11440;BME280;5776;51.814;4.510;2023-04-16T05:39:39;102451.25;;;9.88;100.00
11440;BME280;5776;51.814;4.510;2023-04-16T05:42:05;102439.59;;;9.87;100.00
11440;BME280;5776;51.814;4.510;2023-04-16T05:44:31;102447.13;;;9.85;100.00
11440;BME280;5776;51.814;4.510;2023-04-16T05:46:57;102440.41;;;9.88;100.00
11440;BME280;5776;51.814;4.510;2023-04-16T05:49:23;102444.78;;;9.89;100.00
11440;BME280;5776;51.814;4.510;2023-04-16T05:51:49;102449.63;;;9.87;100.00
11440;BME280;5776;51.814;4.510;2023-04-16T05:54:15;102453.97;;;9.88;100.00
11440;BME280;5776;51.814;4.510;2023-04-16T05:56:40;102455.03;;;9.87;100.00
11440;BME280;5776;51.814;4.510;2023-04-16T05:59:06;102446.91;;;9.87;100.00
11440;BME280;5776;51.814;4.510;2023-04-16T06:01:32;102455.03;;;9.87;100.00
11440;BME280;5776;51.814;4.510;2023-04-16T06:03:58;102449.03;;;9.85;100.00
11440;BME280;5776;51.814;4.510;2023-04-16T06:06:24;102450.69;;;9.86;100.00
11440;BME280;5776;51.814;4.510;2023-04-16T06:08:52;102456.34;;;9.84;100.00
11440;BME280;5776;51.814;4.510;2023-04-16T06:11:18;102453.31;;;9.81;100.00
11440;BME280;5776;51.814;4.510;2023-04-16T06:13:44;102459.31;;;9.83;100.00
11440;BME280;5776;51.814;4.510;2023-04-16T06:16:09;102454.94;;;9.82;100.00
11440;BME280;5776;51.814;4.510;2023-04-16T06:18:35;102457.19;;;9.85;100.00
11440;BME280;5776;51.814;4.510;2023-04-16T06:21:02;102455.53;;;9.84;100.00
11440;BME280;5776;51.814;4.510;2023-04-16T06:23:28;102460.97;;;9.84;100.00
11440;BME280;5776;51.814;4.510;2023-04-16T06:25:54;102464.25;;;9.86;100.00
11440;BME280;5776;51.814;4.510;2023-04-16T06:28:20;102461.19;;;9.82;100.00
11440;BME280;5776;51.814;4.510;2023-04-16T06:30:46;102468.28;;;9.83;100.00
11440;BME280;5776;51.814;4.510;2023-04-16T06:33:12;102469.09;;;9.84;100.00
11440;BME280;5776;51.814;4.510;2023-04-16T06:35:38;102467.13;;;9.79;100.00
11440;BME280;5776;51.814;4.510;2023-04-16T06:38:04;102472.06;;;9.82;100.00
11440;BME280;5776;51.814;4.510;2023-04-16T06:40:30;102466.03;;;9.80;100.00
11440;BME280;5776;51.814;4.510;2023-04-16T06:42:56;102480.19;;;9.82;100.00
11440;BME280;5776;51.814;4.510;2023-04-16T06:45:22;102475.59;;;9.83;100.00
11440;BME280;5776;51.814;4.510;2023-04-16T06:47:48;102482.09;;;9.82;100.00
11440;BME280;5776;51.814;4.510;2023-04-16T06:50:14;102476.06;;;9.80;100.00
11440;BME280;5776;51.814;4.510;2023-04-16T06:52:40;102476.06;;;9.80;100.00
11440;BME280;5776;51.814;4.510;2023-04-16T06:55:06;102478.56;;;9.81;100.00
11440;BME280;5776;51.814;4.510;2023-04-16T06:57:35;102478.78;;;9.80;100.00
11440;BME280;5776;51.814;4.510;2023-04-16T07:00:02;102482.59;;;9.79;100.00
11440;BME280;5776;51.814;4.510;2023-04-16T07:02:28;102486.69;;;9.81;100.00
11440;BME280;5776;51.814;4.510;2023-04-16T07:04:54;102491.97;;;9.88;100.00
11440;BME280;5776;51.814;4.510;2023-04-16T07:07:19;102487.38;;;9.88;100.00
11440;BME280;5776;51.814;4.510;2023-04-16T07:09:45;102487.63;;;9.87;100.00
11440;BME280;5776;51.814;4.510;2023-04-16T07:12:11;102493.53;;;9.84;100.00
11440;BME280;5776;51.814;4.510;2023-04-16T07:14:38;102502.72;;;9.83;100.00
11440;BME280;5776;51.814;4.510;2023-04-16T07:17:04;102490.00;;;9.83;100.00
11440;BME280;5776;51.814;4.510;2023-04-16T07:19:30;102494.56;;;9.83;100.00
11440;BME280;5776;51.814;4.510;2023-04-16T07:21:58;102501.69;;;9.84;100.00
11440;BME280;5776;51.814;4.510;2023-04-16T07:24:24;102498.38;;;9.82;100.00
11440;BME280;5776;51.814;4.510;2023-04-16T07:26:50;102496.47;;;9.82;100.00
11440;BME280;5776;51.814;4.510;2023-04-16T07:29:16;102507.09;;;9.84;100.00
11440;BME280;5776;51.814;4.510;2023-04-16T07:31:43;102503.06;;;9.86;100.00
11440;BME280;5776;51.814;4.510;2023-04-16T07:34:10;102495.16;;;9.85;100.00
11440;BME280;5776;51.814;4.510;2023-04-16T07:36:36;102500.84;;;9.83;100.00
11440;BME280;5776;51.814;4.510;2023-04-16T07:39:05;102504.38;;;9.84;100.00
11440;BME280;5776;51.814;4.510;2023-04-16T07:41:31;102510.97;;;9.88;100.00
11440;BME280;5776;51.814;4.510;2023-04-16T07:43:58;102515.81;;;9.86;100.00
11440;BME280;5776;51.814;4.510;2023-04-16T07:46:24;102512.03;;;9.87;100.00
11440;BME280;5776;51.814;4.510;2023-04-16T07:48:50;102513.13;;;9.86;100.00
11440;BME280;5776;51.814;4.510;2023-04-16T07:51:16;102521.81;;;9.88;100.00
11440;BME280;5776;51.814;4.510;2023-04-16T07:53:42;102519.09;;;9.88;100.00
11440;BME280;5776;51.814;4.510;2023-04-16T07:56:08;102518.53;;;9.86;100.00
11440;BME280;5776;51.814;4.510;2023-04-16T07:58:34;102525.59;;;9.87;100.00
11440;BME280;5776;51.814;4.510;2023-04-16T08:01:00;102521.81;;;9.88;100.00
11440;BME280;5776;51.814;4.510;2023-04-16T08:03:26;102520.75;;;9.89;100.00
11440;BME280;5776;51.814;4.510;2023-04-16T08:05:52;102528.91;;;9.89;100.00
11440;BME280;5776;51.814;4.510;2023-04-16T08:08:18;102535.38;;;9.88;100.00
11440;BME280;5776;51.814;4.510;2023-04-16T08:10:44;102541.41;;;9.90;100.00
11440;BME280;5776;51.814;4.510;2023-04-16T08:13:10;102534.06;;;9.90;100.00
11440;BME280;5776;51.814;4.510;2023-04-16T08:15:36;102536.47;;;9.87;100.00
11440;BME280;5776;51.814;4.510;2023-04-16T08:18:02;102541.06;;;9.86;100.00
11440;BME280;5776;51.814;4.510;2023-04-16T08:20:30;102550.84;;;9.87;100.00
11440;BME280;5776;51.814;4.510;2023-04-16T08:22:56;102547.91;;;9.89;100.00
11440;BME280;5776;51.814;4.510;2023-04-16T08:25:21;102544.94;;;9.90;100.00
11440;BME280;5776;51.814;4.510;2023-04-16T08:27:49;102548.50;;;9.91;100.00
11440;BME280;5776;51.814;4.510;2023-04-16T08:30:15;102547.09;;;9.88;100.00
11440;BME280;5776;51.814;4.510;2023-04-16T08:32:42;102548.50;;;9.91;100.00
11440;BME280;5776;51.814;4.510;2023-04-16T08:35:08;102550.13;;;9.92;100.00
11440;BME280;5776;51.814;4.510;2023-04-16T08:37:34;102555.56;;;9.92;100.00
11440;BME280;5776;51.814;4.510;2023-04-16T08:40:01;102559.91;;;9.93;100.00
11440;BME280;5776;51.814;4.510;2023-04-16T08:42:30;102558.59;;;9.95;100.00
11440;BME280;5776;51.814;4.510;2023-04-16T08:45:17;102553.16;;;9.95;100.00
11440;BME280;5776;51.814;4.510;2023-04-16T08:47:48;102560.50;;;9.95;100.00
11440;BME280;5776;51.814;4.510;2023-04-16T08:50:21;102563.22;;;9.95;100.00
11440;BME280;5776;51.814;4.510;2023-04-16T08:52:52;102563.78;;;9.97;100.00
11440;BME280;5776;51.814;4.510;2023-04-16T08:55:25;102572.53;;;9.99;100.00
11440;BME280;5776;51.814;4.510;2023-04-16T08:57:57;102567.59;;;9.96;100.00
11440;BME280;5776;51.814;4.510;2023-04-16T09:00:23;102578.44;;;9.96;100.00
11440;BME280;5776;51.814;4.510;2023-04-16T09:02:49;102577.38;;;9.97;100.00
11440;BME280;5776;51.814;4.510;2023-04-16T09:05:16;102586.09;;;9.99;100.00
11440;BME280;5776;51.814;4.510;2023-04-16T09:07:46;102577.97;;;9.99;100.00
11440;BME280;5776;51.814;4.510;2023-04-16T09:10:16;102581.72;;;9.98;100.00
11440;BME280;5776;51.814;4.510;2023-04-16T09:12:42;102584.69;;;9.97;100.00
11440;BME280;5776;51.814;4.510;2023-04-16T09:15:12;102585.50;;;9.97;100.00
11440;BME280;5776;51.814;4.510;2023-04-16T09:17:39;102580.66;;;9.99;100.00
11440;BME280;5776;51.814;4.510;2023-04-16T09:20:06;102580.91;;;9.98;100.00
11440;BME280;5776;51.814;4.510;2023-04-16T09:22:35;102588.22;;;9.97;100.00
11440;BME280;5776;51.814;4.510;2023-04-16T09:25:02;102588.00;;;9.99;100.00
11440;BME280;5776;51.814;4.510;2023-04-16T09:27:29;102586.69;;;10.01;100.00
11440;BME280;5776;51.814;4.510;2023-04-16T09:29:55;102587.75;;;10.00;100.00
11440;BME280;5776;51.814;4.510;2023-04-16T09:32:25;102588.81;;;9.99;100.00
11440;BME280;5776;51.814;4.510;2023-04-16T09:34:58;102591.31;;;10.01;100.00
11440;BME280;5776;51.814;4.510;2023-04-16T09:37:29;102594.84;;;10.01;100.00
11440;BME280;5776;51.814;4.510;2023-04-16T09:40:00;102592.94;;;10.02;100.00
11440;BME280;5776;51.814;4.510;2023-04-16T09:42:28;102601.31;;;10.00;100.00
11440;BME280;5776;51.814;4.510;2023-04-16T09:44:54;102600.00;;;10.03;100.00
11440;BME280;5776;51.814;4.510;2023-04-16T09:47:22;102609.00;;;10.03;100.00
11440;BME280;5776;51.814;4.510;2023-04-16T09:49:48;102605.44;;;10.03;100.00
11440;BME280;5776;51.814;4.510;2023-04-16T09:52:19;102601.66;;;10.04;100.00
11440;BME280;5776;51.814;4.510;2023-04-16T09:54:52;102606.28;;;10.03;100.00
11440;BME280;5776;51.814;4.510;2023-04-16T09:57:19;102606.84;;;10.05;100.00
11440;BME280;5776;51.814;4.510;2023-04-16T09:59:47;102616.38;;;10.08;100.00
11440;BME280;5776;51.814;4.510;2023-04-16T10:02:16;102612.25;;;10.05;100.00
11440;BME280;5776;51.814;4.510;2023-04-16T10:04:50;102620.19;;;10.07;100.00
11440;BME280;5776;51.814;4.510;2023-04-16T10:07:17;102617.25;;;10.08;100.00
11440;BME280;5776;51.814;4.510;2023-04-16T10:09:44;102622.06;;;10.06;100.00
11440;BME280;5776;51.814;4.510;2023-04-16T10:12:10;102629.16;;;10.07;100.00
11440;BME280;5776;51.814;4.510;2023-04-16T10:14:37;102628.56;;;10.05;100.00
11440;BME280;5776;51.814;4.510;2023-04-16T10:17:03;102630.81;;;10.08;100.00
11440;BME280;5776;51.814;4.510;2023-04-16T10:19:31;102634.09;;;10.10;100.00
11440;BME280;5776;51.814;4.510;2023-04-16T10:21:57;102637.88;;;10.09;100.00
11440;BME280;5776;51.814;4.510;2023-04-16T10:24:30;102630.81;;;10.08;100.00
11440;BME280;5776;51.814;4.510;2023-04-16T10:26:57;102639.78;;;10.09;100.00
11440;BME280;5776;51.814;4.510;2023-04-16T10:29:25;102644.13;;;10.10;100.00
11440;BME280;5776;51.814;4.510;2023-04-16T10:31:53;102641.66;;;10.08;100.00
11440;BME280;5776;51.814;4.510;2023-04-16T10:34:20;102633.28;;;10.10;100.00
11440;BME280;5776;51.814;4.510;2023-04-16T10:36:48;102633.53;;;10.08;100.00
11440;BME280;5776;51.814;4.510;2023-04-16T10:39:20;102640.59;;;10.09;100.00
11440;BME280;5776;51.814;4.510;2023-04-16T10:41:47;102634.09;;;10.10;100.00
11440;BME280;5776;51.814;4.510;2023-04-16T10:44:17;102637.88;;;10.09;100.00
11440;BME280;5776;51.814;4.510;2023-04-16T10:46:46;102639.50;;;10.10;100.00
11440;BME280;5776;51.814;4.510;2023-04-16T10:51:51;102644.72;;;10.12;100.00
11440;BME280;5776;51.814;4.510;2023-04-16T10:54:20;102638.47;;;10.11;100.00
11440;BME280;5776;51.814;4.510;2023-04-16T10:56:48;102643.91;;;10.11;100.00
11440;BME280;5776;51.814;4.510;2023-04-16T10:59:19;102640.38;;;10.11;100.00
11440;BME280;5776;51.814;4.510;2023-04-16T11:01:52;102639.50;;;10.10;100.00
11440;BME280;5776;51.814;4.510;2023-04-16T11:12:16;102641.63;;;10.20;100.00
11440;BME280;5776;51.814;4.510;2023-04-16T11:14:48;102641.88;;;10.19;100.00
11440;BME280;5776;51.814;4.510;2023-04-16T11:17:14;102640.22;;;10.17;100.00
11440;BME280;5776;51.814;4.510;2023-04-16T11:19:41;102636.44;;;10.19;100.00
11440;BME280;5776;51.814;4.510;2023-04-16T11:22:11;102634.53;;;10.19;100.00
11440;BME280;5776;51.814;4.510;2023-04-16T11:24:38;102641.88;;;10.19;100.00
11440;BME280;5776;51.814;4.510;2023-04-16T11:27:06;102639.72;;;10.21;100.00
11440;BME280;5776;51.814;4.510;2023-04-16T11:29:33;102637.00;;;10.21;100.00
11440;BME280;5776;51.814;4.510;2023-04-16T11:31:59;102645.16;;;10.21;100.00
11440;BME280;5776;51.814;4.510;2023-04-16T11:34:25;102633.25;;;10.22;100.00
11440;BME280;5776;51.814;4.510;2023-04-16T11:36:51;102643.59;;;10.25;100.00
11440;BME280;5776;51.814;4.510;2023-04-16T11:39:18;102627.81;;;10.22;100.00
11440;BME280;5776;51.814;4.510;2023-04-16T11:41:45;102634.88;;;10.23;100.00
11440;BME280;5776;51.814;4.510;2023-04-16T11:44:20;102629.22;;;10.24;100.00
11440;BME280;5776;51.814;4.510;2023-04-16T11:46:46;102636.06;;;10.27;100.00
11440;BME280;5776;51.814;4.510;2023-04-16T11:49:12;102640.91;;;10.25;100.00
11440;BME280;5776;51.814;4.510;2023-04-16T11:51:42;102637.13;;;10.26;100.00
11440;BME280;5776;51.814;4.510;2023-04-16T11:54:09;102631.69;;;10.26;100.00
11440;BME280;5776;51.814;4.510;2023-04-16T11:56:35;102642.56;;;10.26;100.00
11440;BME280;5776;51.814;4.510;2023-04-16T11:59:12;102639.59;;;10.27;100.00
11440;BME280;5776;51.814;4.510;2023-04-16T12:01:40;102645.63;;;10.29;100.00
11440;BME280;5776;51.814;4.510;2023-04-16T12:04:06;102639.97;;;10.31;100.00
11440;BME280;5776;51.814;4.510;2023-04-16T12:06:32;102639.97;;;10.31;100.00
11440;BME280;5776;51.814;4.510;2023-04-16T12:08:59;102649.75;;;10.32;100.00
11440;BME280;5776;51.814;4.510;2023-04-16T12:11:39;102652.47;;;10.32;100.00
11440;BME280;5776;51.814;4.510;2023-04-16T12:14:09;102651.97;;;10.35;100.00
11440;BME280;5776;51.814;4.510;2023-04-16T12:16:36;102653.06;;;10.34;100.00
11440;BME280;5776;51.814;4.510;2023-04-16T12:19:02;102653.25;;;10.44;100.00
11440;BME280;5776;51.814;4.510;2023-04-16T12:24:02;102657.03;;;10.43;100.00
11440;BME280;5776;51.814;4.510;2023-04-16T12:29:17;102650.41;;;10.51;100.00
11440;BME280;5776;51.814;4.510;2023-04-16T12:31:45;102655.00;;;10.50;100.00
11440;BME280;5776;51.814;4.510;2023-04-16T12:34:12;102651.72;;;10.48;100.00
11440;BME280;5776;51.814;4.510;2023-04-16T12:36:40;102647.56;;;10.46;100.00
11440;BME280;5776;51.814;4.510;2023-04-16T12:39:07;102653.84;;;10.46;100.00
11440;BME280;5776;51.814;4.510;2023-04-16T12:41:36;102654.88;;;10.45;100.00
11440;BME280;5776;51.814;4.510;2023-04-16T12:44:15;102645.94;;;10.45;100.00
11440;BME280;5776;51.814;4.510;2023-04-16T12:46:41;102657.38;;;10.47;100.00
11440;BME280;5776;51.814;4.510;2023-04-16T12:49:08;102651.13;;;10.46;100.00
11440;BME280;5776;51.814;4.510;2023-04-16T12:51:35;102659.00;;;10.48;100.00
11440;BME280;5776;51.814;4.510;2023-04-16T12:54:03;102651.25;;;10.40;100.00
11440;BME280;5776;51.814;4.510;2023-04-16T12:56:30;102661.03;;;10.41;100.00
11440;BME280;5776;51.814;4.510;2023-04-16T12:58:56;102659.63;;;10.38;100.00
11440;BME280;5776;51.814;4.510;2023-04-16T13:01:22;102653.66;;;10.36;100.00
11440;BME280;5776;51.814;4.510;2023-04-16T13:03:48;102653.66;;;10.36;100.00
11440;BME280;5776;51.814;4.510;2023-04-16T13:06:15;102649.84;;;10.37;100.00
11440;BME280;5776;51.814;4.510;2023-04-16T13:08:44;102656.94;;;10.38;100.00
11440;BME280;5776;51.814;4.510;2023-04-16T13:11:11;102662.94;;;10.40;100.00